createdAt,value
2022-11-01T00:02:00.556Z,8.38
2022-11-01T00:04:27.480Z,8.05
2022-11-01T00:06:54.294Z,7.70
2022-11-01T00:09:21.400Z,7.85
2022-11-01T00:11:48.332Z,7.65
2022-11-01T00:14:17.286Z,7.93
2022-11-01T00:16:44.163Z,7.88
2022-11-01T00:19:11.202Z,8.70
2022-11-01T00:21:38.353Z,8.75
2022-11-01T00:24:05.562Z,8.25
2022-11-01T00:26:32.367Z,8.02
2022-11-01T00:28:59.132Z,8.07
2022-11-01T00:31:26.493Z,7.30
2022-11-01T00:33:53.458Z,7.95
2022-11-01T00:36:20.220Z,7.85
2022-11-01T00:38:53.304Z,7.60
2022-11-01T00:41:21.062Z,7.33
2022-11-01T00:43:48.676Z,7.13
2022-11-01T00:46:15.887Z,7.85
2022-11-01T00:48:42.743Z,6.72
2022-11-01T00:51:09.540Z,7.13
2022-11-01T00:53:36.522Z,6.60
2022-11-01T00:56:05.254Z,6.70
2022-11-01T00:58:32.275Z,6.82
2022-11-01T01:00:59.577Z,7.15
2022-11-01T01:03:26.569Z,7.10
2022-11-01T01:05:54.212Z,6.80
2022-11-01T01:08:21.701Z,6.88
2022-11-01T01:10:48.677Z,7.28
2022-11-01T01:13:15.545Z,6.50
2022-11-01T01:15:42.596Z,6.55
2022-11-01T01:18:10.093Z,6.70
2022-11-01T01:20:37.154Z,6.88
2022-11-01T01:23:04.475Z,6.60
2022-11-01T01:25:31.662Z,6.50
2022-11-01T01:27:58.495Z,6.50
2022-11-01T01:30:25.398Z,6.68
2022-11-01T01:32:52.216Z,6.63
2022-11-01T01:35:19.046Z,6.22
2022-11-01T01:37:45.875Z,6.22
2022-11-01T01:40:12.634Z,6.50
2022-11-01T01:42:41.981Z,6.80
2022-11-01T01:45:19.384Z,6.65
2022-11-01T01:47:52.084Z,6.63
2022-11-01T01:50:59.944Z,6.70
2022-11-01T01:53:31.464Z,6.43
2022-11-01T01:56:02.941Z,6.85
2022-11-01T01:58:33.201Z,6.45
2022-11-01T02:01:00.722Z,6.00
2022-11-01T02:03:31.711Z,6.70
2022-11-01T02:06:21.834Z,6.47
2022-11-01T02:08:53.192Z,5.88
2022-11-01T02:11:20.888Z,5.88
2022-11-01T02:13:48.058Z,6.03
2022-11-01T02:16:35.487Z,5.70
2022-11-01T02:19:21.071Z,5.65
2022-11-01T02:22:06.333Z,5.78
2022-11-01T02:24:39.073Z,5.55
2022-11-01T02:27:20.602Z,5.75
2022-11-01T02:29:47.273Z,5.63
2022-11-01T02:32:22.454Z,5.65
2022-11-01T02:35:10.097Z,5.70
2022-11-01T02:38:03.302Z,5.80
2022-11-01T02:40:43.248Z,5.80
2022-11-01T02:43:18.757Z,5.90
2022-11-01T02:45:50.253Z,5.38
2022-11-01T02:48:21.868Z,5.72
2022-11-01T02:50:57.307Z,5.55
2022-11-01T02:53:24.198Z,5.05
2022-11-01T02:55:54.230Z,5.68
2022-11-01T02:58:28.765Z,5.32
2022-11-01T03:00:57.196Z,5.43
2022-11-01T03:03:31.450Z,5.78
2022-11-01T03:06:01.158Z,5.43
2022-11-01T03:08:35.328Z,5.25
2022-11-01T03:11:13.447Z,5.07
2022-11-01T03:14:08.320Z,5.57
2022-11-01T03:17:00.607Z,5.60
2022-11-01T03:19:49.250Z,5.28
2022-11-01T03:22:28.857Z,5.40
2022-11-01T03:25:30.284Z,5.28
2022-11-01T03:28:00.201Z,5.82
2022-11-01T03:30:29.514Z,5.75
2022-11-01T03:32:57.761Z,5.55
2022-11-01T03:35:37.149Z,5.38
2022-11-01T03:38:10.063Z,4.85
2022-11-01T03:40:41.309Z,5.20
2022-11-01T03:43:12.569Z,5.32
2022-11-01T03:45:41.088Z,5.60
2022-11-01T03:48:08.246Z,5.45
2022-11-01T03:50:35.204Z,5.55
2022-11-01T03:53:02.299Z,5.10
2022-11-01T03:55:29.107Z,5.57
2022-11-01T03:57:57.729Z,4.97
2022-11-01T04:00:28.948Z,5.00
2022-11-01T04:02:58.189Z,5.85
2022-11-01T04:05:27.615Z,5.47
2022-11-01T04:07:55.268Z,5.47
2022-11-01T04:10:23.956Z,5.57
2022-11-01T04:12:51.935Z,5.60
2022-11-01T04:15:38.923Z,5.80
2022-11-01T04:18:27.365Z,5.45
2022-11-01T04:20:54.351Z,6.35
2022-11-01T04:23:21.254Z,5.10
2022-11-01T04:25:48.137Z,5.00
2022-11-01T04:28:15.958Z,5.13
2022-11-01T04:30:43.921Z,5.45
2022-11-01T04:33:11.091Z,5.40
2022-11-01T04:35:40.472Z,6.13
2022-11-01T04:38:08.766Z,6.10
2022-11-01T04:40:35.580Z,6.05
2022-11-01T04:43:02.364Z,5.82
2022-11-01T04:45:29.158Z,5.47
2022-11-01T04:48:15.986Z,5.90
2022-11-01T04:50:43.321Z,6.40
2022-11-01T04:53:10.663Z,5.85
2022-11-01T04:55:37.895Z,5.88
2022-11-01T04:58:06.640Z,5.53
2022-11-01T05:00:34.445Z,5.50
2022-11-01T05:03:08.355Z,5.38
2022-11-01T05:05:35.490Z,5.45
2022-11-01T05:08:03.536Z,5.22
2022-11-01T05:10:30.966Z,5.75
2022-11-01T05:12:57.882Z,5.55
2022-11-01T05:15:25.273Z,5.88
2022-11-01T05:17:52.089Z,5.93
2022-11-01T05:20:19.512Z,6.13
2022-11-01T05:22:46.350Z,5.68
2022-11-01T05:25:13.116Z,5.90
2022-11-01T05:27:39.867Z,5.70
2022-11-01T05:30:08.047Z,5.38
2022-11-01T05:32:35.996Z,5.70
2022-11-01T05:35:02.921Z,5.32
2022-11-01T05:37:29.687Z,5.68
2022-11-01T05:39:56.503Z,5.25
2022-11-01T05:42:23.274Z,5.90
2022-11-01T05:44:50.015Z,5.75
2022-11-01T05:47:17.310Z,5.60
2022-11-01T05:49:44.484Z,5.45
2022-11-01T05:52:11.273Z,5.53
2022-11-01T05:54:38.001Z,5.53
2022-11-01T05:57:06.073Z,6.32
2022-11-01T05:59:32.879Z,6.07
2022-11-01T06:01:59.855Z,5.20
2022-11-01T06:04:26.693Z,5.35
2022-11-01T06:06:53.506Z,5.63
2022-11-01T06:09:20.281Z,5.70
2022-11-01T06:11:47.026Z,5.68
2022-11-01T06:14:13.959Z,5.75
2022-11-01T06:16:40.709Z,6.05
2022-11-01T06:19:08.782Z,5.82
2022-11-01T06:21:35.560Z,6.45
2022-11-01T06:24:03.046Z,6.25
2022-11-01T06:26:30.280Z,6.30
2022-11-01T06:28:59.936Z,6.03
2022-11-01T06:31:26.735Z,6.15
2022-11-01T06:33:53.597Z,6.22
2022-11-01T06:36:20.472Z,5.75
2022-11-01T06:38:47.229Z,5.28
2022-11-01T06:41:14.609Z,5.53
2022-11-01T06:43:42.161Z,5.15
2022-11-01T06:46:09.046Z,5.15
2022-11-01T06:48:35.767Z,5.50
2022-11-01T06:51:04.287Z,4.93
2022-11-01T06:53:31.523Z,5.28
2022-11-01T06:56:01.598Z,5.32
2022-11-01T06:58:28.703Z,5.82
2022-11-01T07:00:55.600Z,5.63
2022-11-01T07:03:22.442Z,5.43
2022-11-01T07:05:50.220Z,5.25
2022-11-01T07:08:17.063Z,5.03
2022-11-01T07:10:44.351Z,6.03
2022-11-01T07:13:13.351Z,5.63
2022-11-01T07:15:40.460Z,5.22
2022-11-01T07:18:08.570Z,5.70
2022-11-01T07:20:41.573Z,5.72
2022-11-01T07:23:17.073Z,6.30
2022-11-01T07:25:44.066Z,6.05
2022-11-01T07:28:11.827Z,6.22
2022-11-01T07:30:39.294Z,6.32
2022-11-01T07:33:06.473Z,6.43
2022-11-01T07:35:34.717Z,7.07
2022-11-01T07:38:04.024Z,6.43
2022-11-01T07:40:35.463Z,7.37
2022-11-01T07:43:02.740Z,7.03
2022-11-01T07:45:31.288Z,6.70
2022-11-01T07:48:02.874Z,7.53
2022-11-01T07:50:31.489Z,6.50
2022-11-01T07:53:02.875Z,6.93
2022-11-01T07:55:29.813Z,7.13
2022-11-01T07:57:56.673Z,6.90
2022-11-01T08:00:24.116Z,6.80
2022-11-01T08:02:51.511Z,7.28
2022-11-01T08:05:18.636Z,6.82
2022-11-01T08:07:46.593Z,6.78
2022-11-01T08:10:13.509Z,7.82
2022-11-01T08:12:40.294Z,7.72
2022-11-01T08:15:07.706Z,7.93
2022-11-01T08:17:34.728Z,7.72
2022-11-01T08:20:01.881Z,7.28
2022-11-01T08:22:28.710Z,7.57
2022-11-01T08:24:55.613Z,7.22
2022-11-01T08:27:22.354Z,7.28
2022-11-01T08:29:49.153Z,7.32
2022-11-01T08:32:20.961Z,7.78
2022-11-01T08:34:48.289Z,7.25
2022-11-01T08:37:15.186Z,7.97
2022-11-01T08:39:41.994Z,7.63
2022-11-01T08:42:09.844Z,8.00
2022-11-01T08:44:36.551Z,8.35
2022-11-01T08:47:03.296Z,8.68
2022-11-01T08:49:30.149Z,8.52
2022-11-01T08:51:56.945Z,9.25
2022-11-01T08:54:23.789Z,8.98
2022-11-01T08:56:50.540Z,9.10
2022-11-01T08:59:17.456Z,9.13
2022-11-01T09:01:44.401Z,9.38
2022-11-01T09:04:12.375Z,8.60
2022-11-01T09:06:39.171Z,8.65
2022-11-01T09:09:05.954Z,8.77
2022-11-01T09:11:32.777Z,8.43
2022-11-01T09:13:59.771Z,8.73
2022-11-01T09:16:26.744Z,8.50
2022-11-01T09:18:53.616Z,9.45
2022-11-01T09:21:20.369Z,8.68
2022-11-01T09:23:47.325Z,8.75
2022-11-01T09:26:14.231Z,8.85
2022-11-01T09:28:41.166Z,8.90
2022-11-01T09:31:20.769Z,9.60
2022-11-01T09:33:48.310Z,9.32
2022-11-01T09:36:15.061Z,9.23
2022-11-01T09:38:41.900Z,8.82
2022-11-01T09:41:35.642Z,8.23
2022-11-01T09:44:05.945Z,8.13
2022-11-01T09:46:42.494Z,9.50
2022-11-01T09:49:11.470Z,8.35
2022-11-01T09:51:39.028Z,8.77
2022-11-01T09:54:08.411Z,8.45
2022-11-01T09:57:05.577Z,8.65
2022-11-01T10:00:01.122Z,8.07
2022-11-01T10:02:46.184Z,7.97
2022-11-01T10:05:30.817Z,8.30
2022-11-01T10:08:00.586Z,8.15
2022-11-01T10:10:58.391Z,7.47
2022-11-01T10:13:37.149Z,7.90
2022-11-01T10:16:09.798Z,7.40
2022-11-01T10:19:11.192Z,7.30
2022-11-01T10:21:49.770Z,7.20
2022-11-01T10:24:37.927Z,7.38
2022-11-01T10:27:36.163Z,6.68
2022-11-01T10:30:13.493Z,6.70
2022-11-01T10:32:40.315Z,7.13
2022-11-01T10:35:17.508Z,6.45
2022-11-01T10:38:19.386Z,6.40
2022-11-01T10:41:11.242Z,5.82
2022-11-01T10:43:44.133Z,6.57
2022-11-01T10:46:18.091Z,6.78
2022-11-01T10:51:22.880Z,6.50
2022-11-01T10:53:55.894Z,6.40
2022-11-01T10:56:37.276Z,7.07
2022-11-01T10:59:10.431Z,7.15
2022-11-01T11:01:42.779Z,6.80
2022-11-01T11:04:15.058Z,6.97
2022-11-01T11:06:42.672Z,6.28
2022-11-01T11:09:21.224Z,6.68
2022-11-01T11:11:49.402Z,7.47
2022-11-01T11:14:17.982Z,6.47
2022-11-01T11:16:55.759Z,6.00
2022-11-01T11:19:30.676Z,5.95
2022-11-01T11:21:58.825Z,5.95
2022-11-01T11:24:45.941Z,6.35
2022-11-01T11:27:23.713Z,6.78
2022-11-01T11:29:53.918Z,6.32
2022-11-01T11:32:31.952Z,6.40
2022-11-01T11:35:00.095Z,6.43
2022-11-01T11:37:31.908Z,6.63
2022-11-01T11:40:21.642Z,6.65
2022-11-01T11:42:50.641Z,6.60
2022-11-01T11:45:29.897Z,5.85
2022-11-01T11:48:14.124Z,6.65
2022-11-01T11:53:35.329Z,6.95
2022-11-01T11:56:08.262Z,6.75
2022-11-01T11:58:48.413Z,6.10
2022-11-01T12:01:21.818Z,6.63
2022-11-01T12:04:00.044Z,5.57
2022-11-01T12:06:28.829Z,6.30
2022-11-01T12:08:57.981Z,6.72
2022-11-01T12:11:26.329Z,6.97
2022-11-01T12:14:07.450Z,6.72
2022-11-01T12:16:41.253Z,6.80
2022-11-01T12:19:31.711Z,6.88
2022-11-01T12:22:01.348Z,7.25
2022-11-01T12:24:42.228Z,7.20
2022-11-01T12:27:19.985Z,6.90
2022-11-01T12:29:59.717Z,7.32
2022-11-01T12:32:28.902Z,7.57
2022-11-01T12:35:00.784Z,7.20
2022-11-01T12:37:52.627Z,7.40
2022-11-01T12:40:33.435Z,6.38
2022-11-01T12:43:20.068Z,5.88
2022-11-01T12:45:59.265Z,6.05
2022-11-01T12:48:31.750Z,6.13
2022-11-01T12:51:21.525Z,6.28
2022-11-01T12:54:01.260Z,6.40
2022-11-01T12:56:28.060Z,6.40
2022-11-01T12:58:56.697Z,5.88
2022-11-01T13:01:40.775Z,5.95
2022-11-01T13:04:20.831Z,4.78
2022-11-01T13:07:07.643Z,5.03
2022-11-01T13:09:46.361Z,4.55
2022-11-01T13:12:17.121Z,8.15
2022-11-01T13:15:07.343Z,5.10
2022-11-01T13:18:01.025Z,4.82
2022-11-01T13:20:54.658Z,5.50
2022-11-01T13:23:49.385Z,5.63
2022-11-01T13:26:27.830Z,5.63
2022-11-01T13:29:07.823Z,5.93
2022-11-01T13:31:37.353Z,5.85
2022-11-01T13:34:30.993Z,5.82
2022-11-01T13:37:06.832Z,6.50
2022-11-01T13:39:52.130Z,6.07
2022-11-01T13:42:23.340Z,7.68
2022-11-01T13:45:13.416Z,6.88
2022-11-01T13:48:00.752Z,6.75
2022-11-01T13:50:42.600Z,7.38
2022-11-01T13:53:21.030Z,7.70
2022-11-01T13:56:13.921Z,7.18
2022-11-01T13:58:41.012Z,7.57
2022-11-01T14:01:37.399Z,7.55
2022-11-01T14:04:37.009Z,7.75
2022-11-01T14:07:15.718Z,8.95
2022-11-01T14:09:44.965Z,8.65
2022-11-01T14:12:34.085Z,8.32
2022-11-01T14:15:15.497Z,8.73
2022-11-01T14:17:57.667Z,8.18
2022-11-01T14:20:36.638Z,8.48
2022-11-01T14:23:27.988Z,8.35
2022-11-01T14:26:25.548Z,8.60
2022-11-01T14:28:55.379Z,8.65
2022-11-01T14:31:26.560Z,8.18
2022-11-01T14:33:58.913Z,8.20
2022-11-01T14:36:30.312Z,8.30
2022-11-01T14:39:21.612Z,7.60
2022-11-01T14:41:55.186Z,7.65
2022-11-01T14:44:39.885Z,7.63
2022-11-01T14:47:25.886Z,7.72
2022-11-01T14:49:57.020Z,7.57
2022-11-01T14:52:42.311Z,7.07
2022-11-01T14:55:20.696Z,8.02
2022-11-01T14:57:49.148Z,7.85
2022-11-01T15:00:33.934Z,7.75
2022-11-01T15:03:02.548Z,7.50
2022-11-01T15:05:29.603Z,7.47
2022-11-01T15:07:59.413Z,7.70
2022-11-01T15:10:27.727Z,7.65
2022-11-01T15:13:04.256Z,7.95
2022-11-01T15:15:37.549Z,7.43
2022-11-01T15:18:05.979Z,7.82
2022-11-01T15:20:38.783Z,7.88
2022-11-01T15:23:10.765Z,8.02
2022-11-01T15:25:40.743Z,7.75
2022-11-01T15:28:07.597Z,7.97
2022-11-01T15:30:34.956Z,7.88
2022-11-01T15:33:15.458Z,8.02
2022-11-01T15:35:42.784Z,7.72
2022-11-01T15:38:20.884Z,8.45
2022-11-01T15:40:50.499Z,8.43
2022-11-01T15:43:26.837Z,8.60
2022-11-01T15:45:58.983Z,8.65
2022-11-01T15:48:30.479Z,9.60
2022-11-01T15:51:01.296Z,9.05
2022-11-01T15:53:32.522Z,8.35
2022-11-01T15:56:08.580Z,7.68
2022-11-01T15:58:43.958Z,8.65
2022-11-01T16:01:16.098Z,9.15
2022-11-01T16:03:58.467Z,11.40
2022-11-01T16:06:36.392Z,9.27
2022-11-01T16:09:15.228Z,9.32
2022-11-01T16:11:42.190Z,10.30
2022-11-01T16:14:44.273Z,10.98
2022-11-01T16:17:33.199Z,10.68
2022-11-01T16:20:00.118Z,10.55
2022-11-01T16:22:42.002Z,10.00
2022-11-01T16:25:11.655Z,9.55
2022-11-01T16:28:02.787Z,10.77
2022-11-01T16:30:49.337Z,11.13
2022-11-01T16:33:27.688Z,11.82
2022-11-01T16:36:21.295Z,11.82
2022-11-01T16:38:55.031Z,13.35
2022-11-01T16:41:33.922Z,12.02
2022-11-01T16:44:14.342Z,14.48
2022-11-01T16:46:41.355Z,17.20
2022-11-01T16:49:22.745Z,17.50
2022-11-01T16:51:50.651Z,18.63
2022-11-01T16:54:17.488Z,16.77
2022-11-01T16:56:50.136Z,16.58
2022-11-01T16:59:26.628Z,15.73
2022-11-01T17:01:55.678Z,15.27
2022-11-01T17:04:22.937Z,14.25
2022-11-01T17:06:50.673Z,16.35
2022-11-01T17:09:19.638Z,13.73
2022-11-01T17:11:51.167Z,13.98
2022-11-01T17:14:19.407Z,14.20
2022-11-01T17:16:47.729Z,14.63
2022-11-01T17:19:31.341Z,14.93
2022-11-01T17:22:05.434Z,15.63
2022-11-01T17:24:33.501Z,14.40
2022-11-01T17:27:05.149Z,15.40
2022-11-01T17:29:32.887Z,15.40
2022-11-01T17:32:01.132Z,16.05
2022-11-01T17:34:28.914Z,14.90
2022-11-01T17:36:57.511Z,14.30
2022-11-01T17:39:28.114Z,13.70
2022-11-01T17:41:55.576Z,13.45
2022-11-01T17:44:23.200Z,14.63
2022-11-01T17:46:50.045Z,12.93
2022-11-01T17:49:17.016Z,13.75
2022-11-01T17:51:44.054Z,13.13
2022-11-01T17:54:10.859Z,13.43
2022-11-01T17:56:37.805Z,13.20
2022-11-01T17:59:04.701Z,13.55
2022-11-01T18:01:32.486Z,12.80
2022-11-01T18:03:59.422Z,12.82
2022-11-01T18:06:26.794Z,14.30
2022-11-01T18:08:54.119Z,14.82
2022-11-01T18:11:48.606Z,16.38
2022-11-01T18:14:24.605Z,21.33
2022-11-01T18:17:00.378Z,24.27
2022-11-01T18:19:45.853Z,13.82
2022-11-01T18:22:28.917Z,15.27
2022-11-01T18:25:12.761Z,16.95
2022-11-01T18:27:41.015Z,14.73
2022-11-01T18:30:19.143Z,18.77
2022-11-01T18:33:21.305Z,15.63
2022-11-01T18:36:08.168Z,15.43
2022-11-01T18:38:57.776Z,15.48
2022-11-01T18:41:25.304Z,15.18
2022-11-01T18:43:53.365Z,15.52
2022-11-01T18:46:27.041Z,14.48
2022-11-01T18:51:34.548Z,15.00
2022-11-01T18:54:10.944Z,15.15
2022-11-01T18:56:43.415Z,16.52
2022-11-01T18:59:23.273Z,16.30
2022-11-01T19:02:13.523Z,16.73
2022-11-01T19:04:42.825Z,16.27
2022-11-01T19:07:14.146Z,15.57
2022-11-01T19:09:56.558Z,15.77
2022-11-01T19:12:29.598Z,14.82
2022-11-01T19:14:59.735Z,15.23
2022-11-01T19:17:29.490Z,15.30
2022-11-01T19:19:57.445Z,14.77
2022-11-01T19:22:40.567Z,15.35
2022-11-01T19:25:21.675Z,15.05
2022-11-01T19:27:50.611Z,13.52
2022-11-01T19:30:28.455Z,14.13
2022-11-01T19:33:08.734Z,14.05
2022-11-01T19:35:35.480Z,13.98
2022-11-01T19:38:02.491Z,14.40
2022-11-01T19:40:34.845Z,13.63
2022-11-01T19:43:20.344Z,14.45
2022-11-01T19:45:52.040Z,14.85
2022-11-01T19:48:26.995Z,15.93
2022-11-01T19:50:55.084Z,15.65
2022-11-01T19:53:33.861Z,15.77
2022-11-01T19:56:09.789Z,16.55
2022-11-01T19:58:42.314Z,16.75
2022-11-01T20:01:23.762Z,16.27
2022-11-01T20:03:57.284Z,15.73
2022-11-01T20:06:31.043Z,16.10
2022-11-01T20:09:18.240Z,14.02
2022-11-01T20:11:45.525Z,14.40
2022-11-01T20:14:14.142Z,12.45
2022-11-01T20:16:42.192Z,13.23
2022-11-01T20:19:13.205Z,12.95
2022-11-01T20:21:44.450Z,13.02
2022-11-01T20:24:12.375Z,13.48
2022-11-01T20:26:40.465Z,13.38
2022-11-01T20:29:08.429Z,14.57
2022-11-01T20:31:37.631Z,14.85
2022-11-01T20:34:05.876Z,13.75
2022-11-01T20:36:33.668Z,13.75
2022-11-01T20:39:01.521Z,14.02
2022-11-01T20:41:30.720Z,14.90
2022-11-01T20:43:58.847Z,14.57
2022-11-01T20:46:25.771Z,14.80
2022-11-01T20:48:53.517Z,15.35
2022-11-01T20:51:21.539Z,15.57
2022-11-01T20:53:49.566Z,14.45
2022-11-01T20:56:18.902Z,13.80
2022-11-01T20:58:48.096Z,13.95
2022-11-01T21:01:20.609Z,13.77
2022-11-01T21:03:49.950Z,14.25
2022-11-01T21:06:20.264Z,13.40
2022-11-01T21:08:49.287Z,14.05
2022-11-01T21:11:43.890Z,13.82
2022-11-01T21:14:16.656Z,13.98
2022-11-01T21:16:43.823Z,15.23
2022-11-01T21:19:24.162Z,14.73
2022-11-01T21:21:59.530Z,15.18
2022-11-01T21:24:34.514Z,14.60
2022-11-01T21:27:04.560Z,14.93
2022-11-01T21:29:31.421Z,15.15
2022-11-01T21:31:58.266Z,14.38
2022-11-01T21:34:28.413Z,14.85
2022-11-01T21:36:58.075Z,13.75
2022-11-01T21:39:33.105Z,14.57
2022-11-01T21:42:22.887Z,14.43
2022-11-01T21:44:49.898Z,13.90
2022-11-01T21:47:30.634Z,13.88
2022-11-01T21:49:57.478Z,14.70
2022-11-01T21:52:24.682Z,13.43
2022-11-01T21:54:52.748Z,14.68
2022-11-01T21:57:19.744Z,14.82
2022-11-01T21:59:46.670Z,13.35
2022-11-01T22:02:14.957Z,14.15
2022-11-01T22:04:42.273Z,13.50
2022-11-01T22:07:11.207Z,14.43
2022-11-01T22:09:38.261Z,14.18
2022-11-01T22:12:06.728Z,13.80
2022-11-01T22:14:33.680Z,14.38
2022-11-01T22:17:01.052Z,13.65
2022-11-01T22:19:27.929Z,13.88
2022-11-01T22:21:54.879Z,14.20
2022-11-01T22:24:21.750Z,14.18
2022-11-01T22:26:48.520Z,13.25
2022-11-01T22:29:15.370Z,13.48
2022-11-01T22:31:42.213Z,13.80
2022-11-01T22:34:08.992Z,12.77
2022-11-01T22:36:36.849Z,12.68
2022-11-01T22:39:23.520Z,12.80
2022-11-01T22:41:50.332Z,13.35
2022-11-01T22:44:20.254Z,12.65
2022-11-01T22:46:57.899Z,12.00
2022-11-01T22:49:30.643Z,12.55
2022-11-01T22:52:05.300Z,11.77
2022-11-01T22:54:47.396Z,11.73
2022-11-01T22:57:24.246Z,11.95
2022-11-01T22:59:53.795Z,12.02
2022-11-01T23:02:31.011Z,11.40
2022-11-01T23:05:06.794Z,11.70
2022-11-01T23:07:35.713Z,10.13
2022-11-01T23:10:21.253Z,10.10
2022-11-01T23:13:08.369Z,9.90
2022-11-01T23:15:35.357Z,10.45
2022-11-01T23:18:02.206Z,10.32
2022-11-01T23:20:29.914Z,11.23
2022-11-01T23:22:56.915Z,9.98
2022-11-01T23:25:26.392Z,10.27
2022-11-01T23:27:54.548Z,10.55
2022-11-01T23:30:22.505Z,10.25
2022-11-01T23:32:49.253Z,10.15
2022-11-01T23:35:20.387Z,9.95
2022-11-01T23:37:47.686Z,9.75
2022-11-01T23:40:17.384Z,10.32
2022-11-01T23:42:44.269Z,10.13
2022-11-01T23:45:46.574Z,10.18
2022-11-01T23:48:13.477Z,9.57
2022-11-01T23:50:40.392Z,10.43
2022-11-01T23:53:13.629Z,10.23
2022-11-01T23:55:48.390Z,10.38
2022-11-01T23:58:24.410Z,10.52
